Aeroporto :
LOGIN :

Iscrizione | Disclaimer

   EN    FR    IT 

 










Sommario :    VFR   VFR Marginale   IFR   IFR Intensivo   IFR Molto Intensivo
Visibilità : 
Base nubi : 
>= 8 km
>= 3000ft
5 / 8 km
1000 / 3000 ft
1500m / 5 km
500 / 1000 ft
800 / 1500m
200 / 500 ft
< 800m
< 200 ft
Simboli :   Temporali  Nebbia  Neve Forte  Precipitazioni Forti  Vento > 20 kt
SIGMETs :   Varie  Temporali  Ghiacco  Turbolenza  Onda orograficha  Ceneri Vulcaniche






- Altitudine del aeroporto : 7 ft
- Codice IATA : XHE


LFTH - Hyeres

ULTIMO METAR :
  • 081900Z AUTO 00000KT CAVOK 14/04 Q1024 NOSIG

METARs OBSOLETI :
  • 081830Z AUTO VRB03KT CAVOK 16/02 Q1023 NOSIG
  • 081800Z AUTO 22005KT CAVOK 16/05 Q1023 NOSIG
  • 081730Z AUTO 22004KT CAVOK 17/05 Q1023 NOSIG
  • 081700Z AUTO 20004KT 170V240 CAVOK 18/06 Q1023 NOSIG
  • 081630Z AUTO 19003KT CAVOK 19/06 Q1023 NOSIG

TAF TAF LFTH
Valido dal 08 a 09 ore il 09 a 09 ore UTC


080800Z 0809/0909 13008KT CAVOK
BECMG 0817/0819 VRB03KT
BECMG 0820/0822 33005KT



MetMap, La meteo Aeronautica in un colpo d'occhio ! - Copyright ORBIFLY Dicembre 2007 - Disclaimer

ORBIFLY MET'MAP TEAM :

Programmazione e sviluppo : Alexandra Zaïnal
Concezione : Baudouin d'Aumeries
Aiuto per la programmazione : Marc-Olivier Méhu
Supporto tecnico e logistico : Manuel Goepfert
Aiuto per la traduzione : Arnaldo La Scala

Contatto : metmap@orbifly.com




FONTI E CREDITI :

   NOAA